Decoded Metar for SBFZ (FORTALEZA in BRAZIL) (IATA:FOR) | Meteo·Mobile Aviation Weather
aviador You're here:

SBFZ Decoded Metar

FORTALEZA in BRAZIL
Report Time2018-12-14 11:00:00
UTC Time2018-12-14 11:55:19
Flight Rules mvfr MVFR
Wind140° at 09 kt
W.Decomp.*RWY 13: 7.7 kt HW 4.6 kt RCW
W.Rank140° ranks 7
Current wind is above 140° avg. (8.7)
Visibility9999 m
Phenomena:N/A
Clouds:Broken 020 Hf
Few TCU 025 Hf
Expected CloudBase > 800 ft AGL from Temp-Dew spread
Ceiling2,000 ft
Temp26°C (ISA +11)
Dew Point24°C (89% RH)
QNH1014 hPa
Density Alt1,729 ft
Elevation82 ft
Report Wrong Elevation
Raw Report
METAR SBFZ 141100Z 14009KT 9999 BKN020 FEW025TCU 26/24 Q1014=

Extra information for SBFZ:More info

Metar Taf Metar & Taf Last 4 Metars F.Rules Stats Wind Profile Meteogram Temp Stats Airport Information Weather charts Add Link Nearby VenuesMetar ALERT Operation Metar Decoded Social comments